Time;durP1;ratioP1;P1;durP2;ratioP2;P2;SDS_P1;SDS_P2;PMS_P1;PMS_P2;Temp;Humidity;BMP_temperature;BMP_pressure;BME280_temperature;BME280_humidity;BME280_pressure;Samples;Min_cycle;Max_cycle;Signal;HPM_P1;HPM_P2
2022/09/25 00:01:52;;;;;;;;;;;14.60;99.90;;;;;;2617204;39;20103;-73
2022/09/25 00:04:21;;;;;;;;;;;14.60;99.90;;;;;;2616213;54;20037;-73
2022/09/25 00:06:51;;;;;;;;;;;14.60;99.90;;;;;;2616206;39;20753;-71
2022/09/25 00:09:22;;;;;;;;;;;14.60;99.90;;;;;;2616457;54;19962;-71
2022/09/25 00:11:52;;;;;;;;;;;14.50;99.90;;;;;;2619555;54;19951;-71
2022/09/25 00:14:21;;;;;;;;;;;14.60;99.90;;;;;;2619479;54;19962;-70
2022/09/25 00:16:53;;;;;;;;;;;14.60;99.90;;;;;;2615684;54;20420;-71
2022/09/25 00:22:05;;;;;;;;;;;14.50;99.90;;;;;;2616483;54;20030;-70
2022/09/25 00:24:35;;;;;;;;;;;14.50;99.90;;;;;;2616837;54;19950;-69
2022/09/25 00:27:08;;;;;;;;;;;14.50;99.90;;;;;;2616944;54;19946;-71
2022/09/25 00:29:38;;;;;;;;;;;14.50;99.90;;;;;;2616692;54;19947;-71
2022/09/25 00:32:11;;;;;;;;;;;14.50;99.90;;;;;;2616343;54;19955;-71
2022/09/25 00:34:41;;;;;;;;;;;14.60;99.90;;;;;;2616771;39;20384;-71
2022/09/25 00:37:10;;;;;;;;;;;14.60;99.90;;;;;;2616145;51;19954;-70
2022/09/25 00:39:40;;;;;;;;;;;14.50;99.90;;;;;;2616369;54;19970;-71
2022/09/25 00:42:12;;;;;;;;;;;14.40;99.90;;;;;;2616024;54;19997;-69
2022/09/25 00:44:55;;;;;;;;;;;14.40;99.90;;;;;;2616501;54;19967;-69
2022/09/25 00:47:30;;;;;;;;;;;14.40;99.90;;;;;;2616020;54;19946;-70
2022/09/25 00:50:01;;;;;;;;;;;14.40;99.90;;;;;;2616704;47;19957;-72
2022/09/25 00:52:31;;;;;;;;;;;14.40;99.90;;;;;;2617389;54;19957;-71
2022/09/25 00:55:04;;;;;;;;;;;14.30;99.90;;;;;;2617903;54;19954;-71
2022/09/25 00:57:35;;;;;;;;;;;14.30;99.90;;;;;;2624691;54;19947;-71
2022/09/25 01:00:08;;;;;;;;;;;14.40;99.90;;;;;;2622237;54;20094;-71
2022/09/25 01:02:41;;;;;;;;;;;14.40;99.90;;;;;;2620276;47;19947;-70
2022/09/25 01:05:13;;;;;;;;;;;14.40;99.90;;;;;;2620969;54;20587;-71
2022/09/25 01:07:45;;;;;;;;;;;14.40;99.90;;;;;;2618813;54;20029;-71
2022/09/25 01:10:15;;;;;;;;;;;14.40;99.90;;;;;;2616728;39;20072;-69
2022/09/25 01:12:47;;;;;;;;;;;14.40;99.90;;;;;;2618359;54;19973;-70
2022/09/25 01:15:18;;;;;;;;;;;14.40;99.90;;;;;;2620141;47;20001;-70
2022/09/25 01:17:55;;;;;;;;;;;14.40;99.90;;;;;;2616357;54;19950;-71
2022/09/25 01:20:33;;;;;;;;;;;14.40;99.90;;;;;;2616529;47;19977;-69
2022/09/25 01:23:08;;;;;;;;;;;14.30;99.90;;;;;;2615920;51;20042;-69
2022/09/25 01:25:46;;;;;;;;;;;14.30;99.90;;;;;;2616151;54;20515;-71
2022/09/25 01:28:25;;;;;;;;;;;14.30;99.90;;;;;;2616711;54;19954;-71
2022/09/25 01:31:00;;;;;;;;;;;14.40;99.90;;;;;;2615669;54;20057;-70
2022/09/25 01:33:32;;;;;;;;;;;14.40;99.90;;;;;;2618715;54;19953;-70
2022/09/25 01:36:05;;;;;;;;;;;14.40;99.90;;;;;;2619162;51;20796;-70
2022/09/25 01:38:35;;;;;;;;;;;14.30;99.90;;;;;;2615835;54;19985;-71
2022/09/25 01:41:10;;;;;;;;;;;14.40;99.90;;;;;;2619131;54;19950;-71
2022/09/25 01:43:40;;;;;;;;;;;14.40;99.90;;;;;;2620943;54;19950;-71
2022/09/25 01:46:15;;;;;;;;;;;14.40;99.90;;;;;;2620565;54;20066;-72
2022/09/25 01:48:46;;;;;;;;;;;14.40;99.90;;;;;;2617990;54;19947;-71
2022/09/25 01:51:18;;;;;;;;;;;14.40;99.90;;;;;;2616761;54;19974;-72
2022/09/25 01:53:49;;;;;;;;;;;14.40;99.90;;;;;;2616686;47;20742;-71
2022/09/25 01:56:21;;;;;;;;;;;14.40;99.90;;;;;;2617211;54;20038;-71
2022/09/25 01:58:52;;;;;;;;;;;14.50;99.90;;;;;;2616729;47;19954;-70
2022/09/25 02:01:28;;;;;;;;;;;14.50;99.90;;;;;;2617344;39;20344;-72
2022/09/25 02:03:59;;;;;;;;;;;14.40;99.90;;;;;;2617032;54;19950;-69
2022/09/25 02:06:29;;;;;;;;;;;14.50;99.90;;;;;;2618396;54;19958;-70
2022/09/25 02:09:02;;;;;;;;;;;14.50;99.90;;;;;;2618402;54;19967;-70
2022/09/25 02:11:33;;;;;;;;;;;14.50;99.90;;;;;;2620030;54;19989;-72
2022/09/25 02:14:05;;;;;;;;;;;14.50;99.90;;;;;;2618877;54;20468;-71
2022/09/25 02:16:42;;;;;;;;;;;14.50;99.90;;;;;;2620007;54;19946;-71
2022/09/25 02:21:58;;;;;;;;;;;14.40;99.90;;;;;;2619543;54;19968;-71
2022/09/25 02:24:29;;;;;;;;;;;14.40;99.90;;;;;;2618757;54;19950;-71
2022/09/25 02:26:58;;;;;;;;;;;14.40;99.90;;;;;;2618964;39;20397;-71
2022/09/25 02:29:28;;;;;;;;;;;14.50;99.90;;;;;;2617970;54;19971;-71
2022/09/25 02:32:03;;;;;;;;;;;14.50;99.90;;;;;;2618661;31;20471;-71
2022/09/25 02:34:33;;;;;;;;;;;14.50;99.90;;;;;;2616839;54;19958;-71
2022/09/25 02:37:02;;;;;;;;;;;14.50;99.90;;;;;;2618399;54;19946;-71
2022/09/25 02:39:33;;;;;;;;;;;14.50;99.90;;;;;;2618436;47;20774;-71
2022/09/25 02:42:13;;;;;;;;;;;14.50;99.90;;;;;;2617051;54;20040;-72
2022/09/25 02:44:48;;;;;;;;;;;14.40;99.90;;;;;;2622627;54;19946;-71
2022/09/25 02:47:27;;;;;;;;;;;14.30;99.90;;;;;;2623859;54;19950;-71
2022/09/25 02:50:03;;;;;;;;;;;14.40;99.90;;;;;;2621576;54;19950;-71
2022/09/25 02:52:35;;;;;;;;;;;14.40;99.90;;;;;;2620370;54;19950;-71
2022/09/25 02:55:06;;;;;;;;;;;14.40;99.90;;;;;;2618431;54;19958;-72
2022/09/25 02:57:39;;;;;;;;;;;14.30;99.90;;;;;;2622225;54;19966;-72
2022/09/25 03:00:09;;;;;;;;;;;14.40;99.90;;;;;;2622376;46;19942;-73
2022/09/25 03:02:42;;;;;;;;;;;14.40;99.90;;;;;;2619641;54;20000;-71
2022/09/25 03:05:19;;;;;;;;;;;14.40;99.90;;;;;;2619392;47;20472;-71
2022/09/25 03:10:33;;;;;;;;;;;14.30;99.90;;;;;;2620312;39;20303;-70
2022/09/25 03:13:14;;;;;;;;;;;14.30;99.90;;;;;;2617011;54;19947;-71
2022/09/25 03:15:45;;;;;;;;;;;14.30;99.90;;;;;;2617510;54;19950;-71
2022/09/25 03:18:18;;;;;;;;;;;14.30;99.90;;;;;;2616385;54;19983;-70
2022/09/25 03:20:47;;;;;;;;;;;14.30;99.90;;;;;;2617721;39;20377;-71
2022/09/25 03:23:16;;;;;;;;;;;14.30;99.90;;;;;;2617508;54;19953;-72
2022/09/25 03:25:46;;;;;;;;;;;14.30;99.90;;;;;;2618050;54;20074;-71
2022/09/25 03:28:18;;;;;;;;;;;14.30;99.90;;;;;;2617111;54;19982;-71
2022/09/25 03:30:57;;;;;;;;;;;14.30;99.90;;;;;;2616318;51;20098;-71
2022/09/25 03:33:30;;;;;;;;;;;14.30;99.90;;;;;;2617607;54;19939;-71
2022/09/25 03:36:03;;;;;;;;;;;14.20;99.90;;;;;;2617403;54;19997;-71
2022/09/25 03:38:32;;;;;;;;;;;14.20;99.90;;;;;;2617540;54;19966;-71
2022/09/25 03:41:02;;;;;;;;;;;14.20;99.90;;;;;;2617812;47;19950;-70
2022/09/25 03:43:32;;;;;;;;;;;14.20;99.90;;;;;;2616929;54;19950;-72
2022/09/25 03:46:01;;;;;;;;;;;14.20;99.90;;;;;;2617882;54;20484;-72
2022/09/25 03:48:34;;;;;;;;;;;14.20;99.90;;;;;;2616614;54;19951;-72
2022/09/25 03:51:04;;;;;;;;;;;14.20;99.90;;;;;;2616424;54;19975;-71
2022/09/25 03:53:34;;;;;;;;;;;14.20;99.90;;;;;;2617046;54;19993;-71
2022/09/25 03:56:05;;;;;;;;;;;14.10;99.90;;;;;;2617307;54;20010;-72
2022/09/25 03:58:34;;;;;;;;;;;14.10;99.90;;;;;;2616849;54;20013;-72
2022/09/25 04:01:04;;;;;;;;;;;14.10;99.90;;;;;;2617288;39;20407;-71
2022/09/25 04:03:36;;;;;;;;;;;14.10;99.90;;;;;;2616449;54;19954;-72
2022/09/25 04:06:06;;;;;;;;;;;14.10;99.90;;;;;;2617025;54;19998;-72
2022/09/25 04:08:36;;;;;;;;;;;14.10;99.90;;;;;;2616541;54;19954;-73
2022/09/25 04:11:06;;;;;;;;;;;14.10;99.90;;;;;;2616964;54;19954;-72
2022/09/25 04:13:36;;;;;;;;;;;14.10;99.90;;;;;;2616244;54;19996;-71
2022/09/25 04:16:07;;;;;;;;;;;14.20;99.90;;;;;;2615736;51;19959;-72
2022/09/25 04:18:40;;;;;;;;;;;14.10;99.90;;;;;;2616708;54;19955;-72
2022/09/25 04:21:11;;;;;;;;;;;14.10;99.90;;;;;;2616907;47;19957;-70
2022/09/25 04:23:40;;;;;;;;;;;14.10;99.90;;;;;;2616296;47;19994;-71
2022/09/25 04:26:10;;;;;;;;;;;14.10;99.90;;;;;;2616987;54;19997;-73
2022/09/25 04:28:40;;;;;;;;;;;14.10;99.90;;;;;;2616609;54;19950;-72
2022/09/25 04:31:09;;;;;;;;;;;14.10;99.90;;;;;;2619149;47;19994;-70
2022/09/25 04:33:46;;;;;;;;;;;14.10;99.90;;;;;;2618818;54;19965;-72
2022/09/25 04:36:17;;;;;;;;;;;14.10;99.90;;;;;;2617120;46;19976;-70
2022/09/25 04:38:47;;;;;;;;;;;14.10;99.90;;;;;;2616626;54;19950;-71
2022/09/25 04:41:18;;;;;;;;;;;14.10;99.90;;;;;;2619691;39;20073;-71
2022/09/25 04:43:48;;;;;;;;;;;14.10;99.90;;;;;;2617213;54;19998;-71
2022/09/25 04:46:19;;;;;;;;;;;14.10;99.90;;;;;;2616756;54;19957;-72
2022/09/25 04:48:53;;;;;;;;;;;14.20;99.90;;;;;;2616467;54;19947;-72
2022/09/25 04:51:23;;;;;;;;;;;14.10;99.90;;;;;;2617119;54;19997;-71
2022/09/25 04:53:52;;;;;;;;;;;14.10;99.90;;;;;;2616381;54;19946;-70
2022/09/25 04:56:22;;;;;;;;;;;14.20;99.90;;;;;;2618947;54;20066;-71
2022/09/25 04:58:51;;;;;;;;;;;14.20;99.90;;;;;;2620887;54;19946;-72
2022/09/25 05:01:21;;;;;;;;;;;14.20;99.90;;;;;;2618061;54;20521;-72
2022/09/25 05:03:54;;;;;;;;;;;14.20;99.90;;;;;;2624579;54;19993;-73
2022/09/25 05:06:25;;;;;;;;;;;14.20;99.90;;;;;;2627703;54;19962;-72
2022/09/25 05:08:56;;;;;;;;;;;14.20;99.90;;;;;;2620928;54;19989;-72
2022/09/25 05:11:25;;;;;;;;;;;14.20;99.90;;;;;;2617081;54;19954;-72
2022/09/25 05:13:54;;;;;;;;;;;14.20;99.90;;;;;;2615785;47;19950;-71
2022/09/25 05:16:24;;;;;;;;;;;14.10;99.90;;;;;;2618364;31;20481;-71
2022/09/25 05:18:56;;;;;;;;;;;14.10;99.90;;;;;;2616118;54;19977;-72
2022/09/25 05:21:25;;;;;;;;;;;14.10;99.90;;;;;;2615897;47;19993;-72
2022/09/25 05:23:56;;;;;;;;;;;14.10;99.90;;;;;;2615419;47;20508;-71
2022/09/25 05:26:27;;;;;;;;;;;14.10;99.90;;;;;;2616240;54;20478;-72
2022/09/25 05:28:56;;;;;;;;;;;14.10;99.90;;;;;;2616510;54;19982;-70
2022/09/25 05:31:26;;;;;;;;;;;14.10;99.90;;;;;;2617466;54;19958;-70
2022/09/25 05:33:58;;;;;;;;;;;14.10;99.90;;;;;;2616200;54;19946;-70
2022/09/25 05:36:28;;;;;;;;;;;14.10;99.90;;;;;;2618055;54;19953;-70
2022/09/25 05:38:59;;;;;;;;;;;14.10;99.90;;;;;;2619167;54;19947;-70
2022/09/25 05:41:30;;;;;;;;;;;14.10;99.90;;;;;;2617294;54;19966;-69
2022/09/25 05:43:59;;;;;;;;;;;14.10;99.90;;;;;;2616980;47;19946;-70
2022/09/25 05:46:29;;;;;;;;;;;14.10;99.90;;;;;;2617099;54;19947;-70
2022/09/25 05:49:01;;;;;;;;;;;14.10;99.90;;;;;;2616873;54;19947;-70
2022/09/25 05:51:30;;;;;;;;;;;14.10;99.90;;;;;;2617150;54;19950;-70
2022/09/25 05:54:00;;;;;;;;;;;14.10;99.90;;;;;;2616879;54;20058;-71
2022/09/25 05:56:31;;;;;;;;;;;14.20;99.90;;;;;;2616727;47;19954;-71
2022/09/25 05:59:00;;;;;;;;;;;14.20;99.90;;;;;;2616416;54;19962;-73
